createdAt,value
2022-07-26T00:00:16.245Z,38.34
2022-07-26T00:00:48.289Z,38.35
2022-07-26T00:01:19.966Z,38.38
2022-07-26T00:01:51.726Z,38.32
2022-07-26T00:02:23.305Z,37.96
2022-07-26T00:02:54.771Z,38.03
2022-07-26T00:03:26.348Z,38.16
2022-07-26T00:03:57.959Z,38.40
2022-07-26T00:04:29.371Z,38.11
2022-07-26T00:05:00.821Z,38.22
2022-07-26T00:05:32.336Z,38.45
2022-07-26T00:06:03.770Z,38.38
2022-07-26T00:06:35.165Z,38.52
2022-07-26T00:07:06.575Z,38.48
2022-07-26T00:07:37.930Z,38.43
2022-07-26T00:08:09.283Z,38.29
2022-07-26T00:08:40.822Z,38.64
2022-07-26T00:09:12.207Z,38.37
2022-07-26T00:09:48.045Z,38.17
2022-07-26T00:10:19.896Z,38.21
2022-07-26T00:10:51.254Z,38.21
2022-07-26T00:11:22.636Z,38.47
2022-07-26T00:11:54.101Z,38.56
2022-07-26T00:12:25.516Z,38.29
2022-07-26T00:12:56.922Z,38.80
2022-07-26T00:13:30.193Z,38.74
2022-07-26T00:14:02.363Z,38.36
2022-07-26T00:14:33.933Z,38.35
2022-07-26T00:15:06.160Z,38.54
2022-07-26T00:15:37.682Z,38.70
2022-07-26T00:16:09.171Z,38.68
2022-07-26T00:16:40.762Z,38.25
2022-07-26T00:17:12.360Z,38.25
2022-07-26T00:17:43.771Z,38.61
2022-07-26T00:18:15.264Z,38.88
2022-07-26T00:18:46.686Z,38.46
2022-07-26T00:19:18.183Z,38.68
2022-07-26T00:19:49.607Z,38.54
2022-07-26T00:20:20.984Z,38.29
2022-07-26T00:20:52.409Z,38.78
2022-07-26T00:21:23.892Z,38.50
2022-07-26T00:21:55.303Z,38.46
2022-07-26T00:22:26.669Z,38.77
2022-07-26T00:22:58.085Z,38.94
2022-07-26T00:23:29.567Z,38.89
2022-07-26T00:24:00.981Z,38.49
2022-07-26T00:24:35.486Z,38.72
2022-07-26T00:25:08.122Z,38.84
2022-07-26T00:25:39.584Z,38.56
2022-07-26T00:26:11.011Z,38.86
2022-07-26T00:26:42.410Z,38.71
2022-07-26T00:27:13.768Z,38.66
2022-07-26T00:27:45.169Z,38.46
2022-07-26T00:28:16.785Z,38.52
2022-07-26T00:28:48.218Z,38.46
2022-07-26T00:29:19.874Z,38.41
2022-07-26T00:29:51.414Z,38.58
2022-07-26T00:30:22.862Z,38.44
2022-07-26T00:30:54.256Z,38.47
2022-07-26T00:31:25.929Z,38.85
2022-07-26T00:31:57.556Z,38.73
2022-07-26T00:32:29.019Z,38.77
2022-07-26T00:33:00.455Z,38.51
2022-07-26T00:33:31.837Z,38.60
2022-07-26T00:37:20.656Z,38.96
2022-07-26T00:41:30.113Z,38.88
2022-07-26T00:44:34.843Z,38.67
2022-07-26T00:45:36.128Z,38.80
2022-07-26T00:46:43.479Z,38.90
2022-07-26T00:47:38.192Z,38.64
2022-07-26T00:48:25.838Z,38.99
2022-07-26T00:49:13.309Z,38.68
2022-07-26T00:50:04.388Z,38.89
2022-07-26T00:50:51.771Z,38.79
2022-07-26T00:51:46.371Z,38.83
2022-07-26T00:52:31.761Z,38.98
2022-07-26T00:53:18.834Z,38.91
2022-07-26T00:54:09.192Z,38.93
2022-07-26T00:54:57.853Z,38.53
2022-07-26T00:55:44.783Z,38.47
2022-07-26T00:56:35.560Z,38.82
2022-07-26T00:58:45.635Z,38.84
2022-07-26T00:59:42.322Z,38.88
2022-07-26T01:00:36.295Z,38.98
2022-07-26T01:01:31.140Z,38.62
2022-07-26T01:02:30.212Z,38.59
2022-07-26T01:03:29.111Z,39.03
2022-07-26T01:04:24.991Z,38.96
2022-07-26T01:08:41.208Z,38.65
2022-07-26T01:09:31.895Z,38.85
2022-07-26T01:10:19.278Z,39.06
2022-07-26T01:11:06.115Z,39.10
2022-07-26T01:11:55.130Z,39.01
2022-07-26T01:12:45.591Z,38.70
2022-07-26T01:13:35.542Z,38.81
2022-07-26T01:14:27.294Z,38.71
2022-07-26T01:15:22.895Z,38.71
2022-07-26T01:16:17.601Z,39.14
2022-07-26T01:17:03.636Z,38.74
2022-07-26T01:17:50.637Z,39.07
2022-07-26T01:18:37.610Z,39.08
2022-07-26T01:19:30.783Z,38.90
2022-07-26T01:20:25.169Z,38.86
2022-07-26T01:21:17.213Z,38.94
2022-07-26T01:23:30.309Z,39.06
2022-07-26T01:24:18.055Z,38.87
2022-07-26T01:25:10.450Z,39.07
2022-07-26T01:26:03.132Z,39.24
2022-07-26T01:26:57.264Z,39.29
2022-07-26T01:27:46.051Z,38.77
2022-07-26T01:28:39.913Z,38.71
2022-07-26T01:29:34.614Z,38.93
2022-07-26T01:30:29.155Z,39.16
2022-07-26T01:31:23.029Z,38.95
2022-07-26T01:32:19.684Z,39.00
2022-07-26T01:34:18.639Z,38.84
2022-07-26T01:35:38.692Z,38.83
2022-07-26T01:36:25.601Z,38.98
2022-07-26T01:37:12.151Z,39.30
2022-07-26T01:37:59.714Z,39.00
2022-07-26T01:38:47.815Z,38.95
2022-07-26T01:39:37.447Z,39.34
2022-07-26T01:40:29.593Z,39.13
2022-07-26T01:41:17.058Z,39.19
2022-07-26T01:42:07.421Z,39.52
2022-07-26T01:42:54.114Z,38.98
2022-07-26T01:43:41.143Z,39.05
2022-07-26T01:44:30.638Z,39.00
2022-07-26T01:45:20.531Z,39.37
2022-07-26T01:46:14.291Z,39.17
2022-07-26T01:47:02.338Z,39.33
2022-07-26T01:47:49.639Z,39.21
2022-07-26T01:48:40.534Z,39.30
2022-07-26T01:49:27.634Z,39.26
2022-07-26T01:50:13.053Z,39.28
2022-07-26T01:51:03.962Z,39.22
2022-07-26T01:51:57.088Z,39.19
2022-07-26T01:52:51.475Z,39.44
2022-07-26T01:53:38.449Z,39.40
2022-07-26T01:54:25.381Z,39.36
2022-07-26T01:55:15.340Z,39.08
2022-07-26T01:56:13.502Z,39.30
2022-07-26T01:57:12.645Z,39.41
2022-07-26T01:58:09.952Z,39.49
2022-07-26T02:00:14.882Z,39.12
2022-07-26T02:04:45.380Z,39.49
2022-07-26T02:05:31.488Z,39.44
2022-07-26T02:06:20.819Z,39.15
2022-07-26T02:07:13.080Z,39.42
2022-07-26T02:08:04.474Z,39.50
2022-07-26T02:08:53.803Z,39.50
2022-07-26T02:09:47.253Z,39.61
2022-07-26T02:10:44.500Z,39.14
2022-07-26T02:14:53.265Z,39.30
2022-07-26T02:15:46.157Z,39.20
2022-07-26T02:16:35.331Z,39.19
2022-07-26T02:17:32.134Z,39.18
2022-07-26T02:18:18.750Z,39.49
2022-07-26T02:19:06.313Z,39.19
2022-07-26T02:19:59.199Z,39.13
2022-07-26T02:20:46.267Z,39.05
2022-07-26T02:21:34.656Z,39.15
2022-07-26T02:22:25.119Z,39.29
2022-07-26T02:23:09.918Z,39.34
2022-07-26T02:23:56.986Z,38.94
2022-07-26T02:24:42.728Z,38.91
2022-07-26T02:25:31.297Z,39.31
2022-07-26T02:26:18.351Z,39.07
2022-07-26T02:27:08.468Z,39.04
2022-07-26T02:27:55.633Z,39.41
2022-07-26T02:28:42.729Z,39.05
2022-07-26T02:29:32.292Z,39.51
2022-07-26T02:30:20.277Z,39.36
2022-07-26T02:31:09.531Z,39.00
2022-07-26T02:32:03.284Z,39.35
2022-07-26T02:32:55.173Z,39.33
2022-07-26T02:33:43.442Z,39.08
2022-07-26T02:34:34.010Z,39.42
2022-07-26T02:35:21.152Z,39.00
2022-07-26T02:36:09.613Z,39.33
2022-07-26T02:36:59.284Z,39.14
2022-07-26T02:37:50.662Z,39.25
2022-07-26T02:39:00.391Z,39.19
2022-07-26T02:41:57.217Z,39.46
2022-07-26T02:43:03.491Z,38.98
2022-07-26T02:43:48.607Z,38.93
2022-07-26T02:44:33.614Z,39.20
2022-07-26T02:45:23.017Z,39.38
2022-07-26T02:46:16.868Z,38.95
2022-07-26T02:47:19.234Z,39.03
2022-07-26T02:49:11.968Z,39.15
2022-07-26T02:49:59.754Z,39.39
2022-07-26T02:50:46.302Z,39.09
2022-07-26T02:51:35.985Z,39.41
2022-07-26T02:52:22.912Z,39.54
2022-07-26T02:53:11.669Z,39.52
2022-07-26T02:54:03.159Z,39.41
2022-07-26T02:54:53.906Z,39.53
2022-07-26T02:55:43.594Z,39.09
2022-07-26T02:56:31.726Z,39.33
2022-07-26T02:57:22.062Z,39.32
2022-07-26T02:58:10.735Z,39.45
2022-07-26T02:59:02.013Z,39.57
2022-07-26T02:59:51.001Z,39.09
2022-07-26T03:00:40.861Z,39.56
2022-07-26T03:01:30.117Z,39.14
2022-07-26T03:02:17.202Z,39.13
2022-07-26T03:03:06.613Z,39.11
2022-07-26T03:04:01.765Z,39.67
2022-07-26T03:04:55.005Z,39.49
2022-07-26T03:05:44.445Z,39.24
2022-07-26T03:06:32.324Z,39.16
2022-07-26T03:07:19.411Z,39.28
2022-07-26T03:08:08.210Z,39.55
2022-07-26T03:08:57.218Z,39.48
2022-07-26T03:09:55.458Z,39.44
2022-07-26T03:10:49.469Z,39.69
2022-07-26T03:11:38.087Z,39.50
2022-07-26T03:12:31.919Z,39.69
2022-07-26T03:13:29.285Z,39.71
2022-07-26T03:14:52.962Z,39.59
2022-07-26T03:15:38.276Z,39.80
2022-07-26T03:16:29.435Z,39.32
2022-07-26T03:17:15.395Z,39.28
2022-07-26T03:18:02.776Z,39.59
2022-07-26T03:18:49.666Z,39.34
2022-07-26T03:19:40.399Z,39.23
2022-07-26T03:20:27.316Z,39.48
2022-07-26T03:21:13.424Z,39.09
2022-07-26T03:22:00.363Z,39.47
2022-07-26T03:22:47.374Z,39.36
2022-07-26T03:23:34.857Z,39.24
2022-07-26T03:24:21.875Z,39.29
2022-07-26T03:25:12.134Z,39.85
2022-07-26T03:26:00.281Z,39.85
2022-07-26T03:26:47.508Z,39.73
2022-07-26T03:27:34.356Z,39.47
2022-07-26T03:28:21.475Z,39.94
2022-07-26T03:29:08.478Z,39.35
2022-07-26T03:30:06.396Z,39.38
2022-07-26T03:30:51.168Z,39.28
2022-07-26T03:31:38.529Z,39.69
2022-07-26T03:32:25.469Z,39.71
2022-07-26T03:33:12.530Z,39.74
2022-07-26T03:34:03.153Z,39.55
2022-07-26T03:34:48.984Z,39.44
2022-07-26T03:35:41.564Z,39.40
2022-07-26T03:36:28.472Z,39.59
2022-07-26T03:37:14.898Z,39.44
2022-07-26T03:38:04.791Z,39.71
2022-07-26T03:38:55.169Z,39.43
2022-07-26T03:39:42.101Z,39.24
2022-07-26T03:40:33.168Z,39.71
2022-07-26T03:41:20.067Z,39.86
2022-07-26T03:42:06.998Z,39.30
2022-07-26T03:42:58.128Z,39.72
2022-07-26T03:43:45.974Z,39.56
2022-07-26T03:44:32.985Z,39.65
2022-07-26T03:45:23.949Z,39.29
2022-07-26T03:46:17.009Z,39.64
2022-07-26T03:47:09.823Z,39.79
2022-07-26T03:48:04.146Z,39.44
2022-07-26T03:48:57.438Z,39.36
2022-07-26T03:49:49.681Z,39.63
2022-07-26T03:50:45.083Z,39.38
2022-07-26T03:51:39.093Z,39.41
2022-07-26T03:52:26.011Z,39.46
2022-07-26T03:53:12.507Z,39.33
2022-07-26T03:54:00.233Z,39.61
2022-07-26T03:54:46.886Z,39.68
2022-07-26T03:55:35.176Z,39.88
2022-07-26T03:56:28.133Z,39.55
2022-07-26T03:57:19.000Z,40.00
2022-07-26T03:58:10.761Z,39.89
2022-07-26T03:59:00.648Z,39.58
2022-07-26T03:59:48.854Z,39.72
2022-07-26T04:00:37.783Z,39.77
2022-07-26T04:01:33.960Z,39.55
2022-07-26T04:02:27.993Z,40.06
2022-07-26T04:04:56.842Z,39.98
2022-07-26T04:05:48.640Z,40.04
2022-07-26T04:06:38.124Z,39.89
2022-07-26T04:07:23.977Z,40.40
2022-07-26T04:08:10.855Z,39.98
2022-07-26T04:09:00.682Z,40.30
2022-07-26T04:09:50.376Z,40.43
2022-07-26T04:10:36.388Z,40.21
2022-07-26T04:11:26.650Z,40.36
2022-07-26T04:12:17.432Z,40.33
2022-07-26T04:13:04.167Z,40.26
2022-07-26T04:13:53.699Z,40.01
2022-07-26T04:14:44.294Z,40.29
2022-07-26T04:15:32.549Z,39.96
2022-07-26T04:16:20.955Z,39.96
2022-07-26T04:17:13.713Z,39.90
2022-07-26T04:17:59.246Z,39.87
2022-07-26T04:18:46.532Z,40.06
2022-07-26T04:19:31.677Z,40.17
2022-07-26T04:20:19.144Z,40.16
2022-07-26T04:21:07.593Z,39.92
2022-07-26T04:22:10.956Z,39.89
2022-07-26T04:23:11.455Z,40.32
2022-07-26T04:28:32.497Z,40.35
2022-07-26T04:29:11.034Z,40.46
2022-07-26T04:29:48.223Z,40.18
2022-07-26T04:30:25.107Z,40.51
2022-07-26T04:31:02.059Z,40.45
2022-07-26T04:31:39.257Z,39.99
2022-07-26T04:32:16.902Z,40.33
2022-07-26T04:32:53.911Z,40.01
2022-07-26T04:33:30.523Z,39.77
2022-07-26T04:34:07.683Z,40.24
2022-07-26T04:34:43.817Z,39.96
2022-07-26T04:35:20.727Z,40.23
2022-07-26T04:35:57.514Z,40.10
2022-07-26T04:36:34.138Z,40.55
2022-07-26T04:37:10.712Z,40.30
2022-07-26T04:37:48.342Z,40.51
2022-07-26T04:38:25.320Z,40.22
2022-07-26T04:39:02.144Z,40.25
2022-07-26T04:39:38.773Z,40.22
2022-07-26T04:40:21.084Z,40.08
2022-07-26T04:40:58.249Z,39.95
2022-07-26T04:41:35.915Z,39.99
2022-07-26T04:42:13.158Z,40.07
2022-07-26T04:42:52.044Z,39.95
2022-07-26T04:43:34.131Z,40.22
2022-07-26T04:44:15.630Z,40.33
2022-07-26T04:44:57.306Z,40.94
2022-07-26T04:45:41.743Z,40.56
2022-07-26T04:46:26.494Z,40.57
2022-07-26T04:47:06.569Z,40.96
2022-07-26T04:47:49.139Z,40.67
2022-07-26T04:48:27.038Z,40.45
2022-07-26T04:49:03.686Z,41.05
2022-07-26T04:49:40.450Z,41.07
2022-07-26T04:50:17.125Z,40.59
2022-07-26T04:50:53.945Z,40.56
2022-07-26T04:51:31.478Z,40.72
2022-07-26T04:52:08.656Z,40.87
2022-07-26T04:52:45.260Z,40.77
2022-07-26T04:53:22.736Z,40.84
2022-07-26T04:53:59.495Z,41.26
2022-07-26T04:54:36.304Z,41.13
2022-07-26T04:55:13.112Z,41.20
2022-07-26T04:55:50.278Z,41.01
2022-07-26T04:56:31.096Z,41.00
2022-07-26T04:57:08.390Z,40.98
2022-07-26T04:57:45.471Z,41.24
2022-07-26T04:58:25.174Z,41.45
2022-07-26T04:59:02.787Z,41.22
2022-07-26T04:59:40.768Z,41.29
2022-07-26T05:00:21.738Z,41.18
2022-07-26T05:01:14.439Z,41.28
2022-07-26T05:01:51.762Z,41.09
2022-07-26T05:02:28.928Z,41.33
2022-07-26T05:03:06.253Z,41.46
2022-07-26T05:03:44.474Z,41.21
2022-07-26T05:04:21.815Z,41.10
2022-07-26T05:04:59.330Z,41.18
2022-07-26T05:05:36.670Z,41.41
2022-07-26T05:06:14.466Z,41.52
2022-07-26T05:06:52.100Z,41.37
2022-07-26T05:07:29.319Z,41.49
2022-07-26T05:08:07.217Z,41.72
2022-07-26T05:08:45.208Z,41.32
2022-07-26T05:09:22.983Z,41.26
2022-07-26T05:10:00.720Z,41.21
2022-07-26T05:10:38.346Z,41.25
2022-07-26T05:11:16.019Z,41.54
2022-07-26T05:11:53.896Z,41.53
2022-07-26T05:12:34.447Z,41.60
2022-07-26T05:13:16.288Z,41.35
2022-07-26T05:14:00.825Z,41.50
2022-07-26T05:14:38.942Z,41.78
2022-07-26T05:15:18.744Z,41.73
2022-07-26T05:15:57.346Z,41.62
2022-07-26T05:16:39.275Z,41.50
2022-07-26T05:17:22.625Z,41.86
2022-07-26T05:18:13.458Z,41.41
2022-07-26T05:19:01.151Z,41.75
2022-07-26T05:19:44.870Z,41.25
2022-07-26T05:20:24.778Z,41.56
2022-07-26T05:21:01.770Z,41.43
2022-07-26T05:21:38.656Z,41.49
2022-07-26T05:22:15.510Z,41.56
2022-07-26T05:22:52.441Z,41.51
2022-07-26T05:23:29.835Z,41.01
2022-07-26T05:24:07.797Z,41.32
2022-07-26T05:24:44.072Z,41.61
2022-07-26T05:25:21.063Z,41.66
2022-07-26T05:25:58.156Z,41.90
2022-07-26T05:26:35.186Z,41.76
2022-07-26T05:27:12.249Z,41.68
2022-07-26T05:27:49.686Z,41.70
2022-07-26T05:28:26.215Z,41.58
2022-07-26T05:29:03.395Z,41.73
2022-07-26T05:29:40.535Z,41.75
2022-07-26T05:30:17.543Z,41.68
2022-07-26T05:30:54.611Z,41.52
2022-07-26T05:31:31.890Z,41.61
2022-07-26T05:32:08.873Z,42.23
2022-07-26T05:32:45.478Z,41.79
2022-07-26T05:33:22.520Z,42.20
2022-07-26T05:33:59.806Z,42.02
2022-07-26T05:34:37.186Z,42.06
2022-07-26T05:35:14.687Z,41.72
2022-07-26T05:35:52.889Z,41.76
2022-07-26T05:36:30.250Z,41.65
2022-07-26T05:37:07.763Z,41.62
2022-07-26T05:37:44.977Z,42.12
2022-07-26T05:38:22.366Z,41.74
2022-07-26T05:38:59.704Z,41.54
2022-07-26T05:39:38.438Z,41.79
2022-07-26T05:40:18.351Z,41.82
2022-07-26T05:40:59.064Z,41.90
2022-07-26T05:41:40.458Z,41.92
2022-07-26T05:42:26.884Z,41.58
2022-07-26T05:43:12.570Z,41.91
2022-07-26T05:43:55.330Z,41.59
2022-07-26T05:44:34.551Z,42.20
2022-07-26T05:45:12.019Z,42.21
2022-07-26T05:45:49.015Z,41.69
2022-07-26T05:46:25.779Z,41.89
2022-07-26T05:47:02.611Z,41.99
2022-07-26T05:47:40.032Z,41.99
2022-07-26T05:48:17.303Z,42.42
2022-07-26T05:48:54.394Z,42.01
2022-07-26T05:49:40.064Z,41.90
2022-07-26T05:50:16.869Z,42.29
2022-07-26T05:50:53.845Z,41.61
2022-07-26T05:51:30.598Z,42.23
2022-07-26T05:52:07.352Z,41.98
2022-07-26T05:52:44.144Z,41.78
2022-07-26T05:53:20.541Z,41.93
2022-07-26T05:53:57.381Z,42.11
2022-07-26T05:54:34.669Z,42.29
2022-07-26T05:55:11.294Z,42.06
2022-07-26T05:55:48.028Z,41.93
2022-07-26T05:56:25.101Z,41.76
2022-07-26T05:57:01.513Z,41.97
2022-07-26T05:57:38.242Z,42.01
2022-07-26T05:58:15.139Z,42.28
2022-07-26T05:58:51.772Z,42.13
2022-07-26T05:59:28.593Z,42.42
2022-07-26T06:00:05.486Z,42.46
2022-07-26T06:00:48.290Z,42.05
2022-07-26T06:01:25.503Z,42.26
2022-07-26T06:02:03.788Z,42.10
2022-07-26T06:02:42.365Z,42.24
2022-07-26T06:03:23.900Z,42.46
2022-07-26T06:04:04.468Z,42.55
2022-07-26T06:04:44.004Z,42.16
2022-07-26T06:05:27.573Z,42.48
2022-07-26T06:06:10.020Z,42.58
2022-07-26T06:06:52.646Z,42.48
2022-07-26T06:07:34.562Z,42.36
2022-07-26T06:08:15.212Z,42.61
2022-07-26T06:08:56.526Z,42.23
2022-07-26T06:09:43.309Z,42.69
2022-07-26T06:10:29.311Z,42.75
2022-07-26T06:11:10.713Z,42.76
2022-07-26T06:11:48.698Z,42.06
2022-07-26T06:12:25.465Z,41.73
2022-07-26T06:13:02.099Z,42.56
2022-07-26T06:13:38.951Z,42.58
2022-07-26T06:14:16.100Z,42.20
2022-07-26T06:14:52.647Z,42.51
2022-07-26T06:15:29.838Z,42.61
2022-07-26T06:16:06.810Z,42.51
2022-07-26T06:16:43.698Z,42.36
2022-07-26T06:17:20.611Z,42.36
2022-07-26T06:17:57.813Z,42.40
2022-07-26T06:18:35.483Z,42.66
2022-07-26T06:19:12.964Z,42.38
2022-07-26T06:19:50.841Z,42.25
2022-07-26T06:20:28.411Z,42.43
2022-07-26T06:21:05.187Z,42.47
2022-07-26T06:21:42.940Z,42.46
2022-07-26T06:22:19.844Z,43.01
2022-07-26T06:22:56.698Z,42.74
2022-07-26T06:23:35.004Z,42.32
2022-07-26T06:24:11.944Z,43.00
2022-07-26T06:24:49.214Z,42.74
2022-07-26T06:25:26.199Z,42.38
2022-07-26T06:26:02.964Z,43.01
2022-07-26T06:26:39.840Z,42.80
2022-07-26T06:27:17.379Z,42.97
2022-07-26T06:27:54.379Z,42.76
2022-07-26T06:28:31.839Z,42.90
2022-07-26T06:29:08.703Z,42.71
2022-07-26T06:29:46.160Z,42.76
2022-07-26T06:30:23.629Z,42.82
2022-07-26T06:31:00.613Z,42.75
2022-07-26T06:31:38.388Z,42.65
2022-07-26T06:32:16.076Z,42.55
2022-07-26T06:32:53.668Z,42.97
2022-07-26T06:33:30.817Z,42.62
2022-07-26T06:34:10.089Z,42.71
2022-07-26T06:35:36.568Z,43.13
2022-07-26T06:36:30.741Z,42.98
2022-07-26T06:37:17.983Z,42.37
2022-07-26T06:38:04.712Z,42.36
2022-07-26T06:38:55.197Z,42.19
2022-07-26T06:39:44.718Z,42.36
2022-07-26T06:40:37.081Z,42.38
2022-07-26T06:41:24.272Z,42.69
2022-07-26T06:42:12.965Z,42.41
2022-07-26T06:43:13.256Z,42.62
2022-07-26T06:45:35.022Z,42.16
2022-07-26T06:46:19.516Z,42.45
2022-07-26T06:47:04.222Z,42.75
2022-07-26T06:47:50.158Z,43.08
2022-07-26T06:48:38.113Z,42.61
2022-07-26T06:49:28.604Z,42.82
2022-07-26T06:50:17.862Z,42.96
2022-07-26T06:51:14.820Z,42.61
2022-07-26T06:52:02.958Z,43.28
2022-07-26T06:52:51.545Z,42.99
2022-07-26T06:53:40.430Z,42.79
2022-07-26T06:54:39.492Z,43.14
2022-07-26T06:59:56.876Z,43.12
2022-07-26T07:00:36.551Z,42.96
2022-07-26T07:01:58.775Z,42.98
2022-07-26T07:02:13.612Z,42.90
2022-07-26T07:03:01.542Z,43.22
2022-07-26T07:03:57.497Z,42.68
2022-07-26T07:04:49.872Z,42.45
2022-07-26T08:12:47.759Z,43.86
2022-07-26T08:14:27.013Z,43.79
2022-07-26T08:15:16.324Z,44.02
2022-07-26T08:23:18.184Z,43.64
2022-07-26T08:24:16.729Z,43.57
2022-07-26T08:25:04.639Z,43.66
2022-07-26T10:02:43.715Z,41.79
2022-07-26T10:03:49.805Z,42.08
2022-07-26T10:04:28.226Z,41.97
2022-07-26T10:05:19.873Z,41.55
2022-07-26T10:07:12.671Z,42.08
2022-07-26T10:10:46.288Z,41.50
2022-07-26T10:11:29.628Z,41.54
2022-07-26T10:12:15.559Z,41.65
2022-07-26T10:13:00.086Z,41.56
2022-07-26T11:22:09.875Z,40.65
2022-07-26T11:23:26.950Z,40.59
2022-07-26T11:24:27.406Z,40.52
2022-07-26T11:25:26.067Z,40.54
2022-07-26T11:26:12.934Z,40.73
2022-07-26T11:27:01.495Z,41.12
2022-07-26T12:35:50.729Z,41.65
2022-07-26T12:36:28.154Z,41.68
2022-07-26T12:37:10.247Z,41.66
2022-07-26T12:37:49.100Z,41.72
2022-07-26T12:38:38.539Z,41.99
2022-07-26T12:39:10.038Z,41.64
2022-07-26T12:39:41.945Z,41.56
2022-07-26T12:40:17.691Z,41.68
2022-07-26T12:42:44.414Z,41.82
2022-07-26T12:43:31.603Z,41.94
2022-07-26T12:44:25.392Z,41.91
2022-07-26T12:45:16.059Z,41.50
2022-07-26T12:46:05.520Z,41.87
2022-07-26T12:47:10.480Z,41.83
2022-07-26T12:48:37.298Z,41.69
2022-07-26T12:49:29.724Z,41.95
2022-07-26T12:50:19.563Z,41.48
2022-07-26T12:51:09.658Z,41.24
2022-07-26T12:52:06.399Z,41.80
2022-07-26T12:53:36.232Z,41.47
2022-07-26T12:54:42.174Z,41.56
2022-07-26T12:55:28.810Z,41.66
2022-07-26T12:56:16.304Z,41.37
2022-07-26T12:57:08.277Z,41.65
2022-07-26T12:57:59.674Z,41.73
2022-07-26T12:58:47.017Z,41.64
2022-07-26T12:59:44.972Z,41.32
2022-07-26T13:00:43.844Z,41.34
2022-07-26T13:01:38.798Z,41.31
2022-07-26T13:02:43.156Z,41.43
2022-07-26T13:06:06.572Z,41.29
2022-07-26T13:06:56.070Z,41.08
2022-07-26T13:08:44.436Z,41.46
2022-07-26T13:09:21.872Z,41.13
2022-07-26T13:10:30.425Z,41.21
2022-07-26T13:10:59.847Z,41.11
2022-07-26T13:11:37.383Z,40.95
2022-07-26T13:12:15.396Z,41.17
2022-07-26T13:12:52.353Z,40.97
2022-07-26T13:13:30.207Z,40.91
2022-07-26T13:14:09.308Z,41.26
2022-07-26T13:14:48.815Z,40.84
2022-07-26T13:15:37.131Z,40.79
2022-07-26T13:16:24.049Z,40.88
2022-07-26T13:17:08.764Z,40.90
2022-07-26T13:17:45.436Z,40.90
2022-07-26T13:18:22.688Z,40.79
2022-07-26T13:18:59.920Z,41.17
2022-07-26T13:19:37.412Z,41.23
2022-07-26T13:20:14.627Z,41.31
2022-07-26T13:20:54.730Z,41.22
2022-07-26T13:21:33.957Z,40.82
2022-07-26T13:22:12.689Z,41.08
2022-07-26T13:22:51.903Z,41.19
2022-07-26T13:23:31.124Z,41.07
2022-07-26T13:24:09.766Z,41.28
2022-07-26T13:24:49.628Z,41.18
2022-07-26T13:25:29.076Z,41.17
2022-07-26T13:26:20.240Z,41.00
2022-07-26T13:27:10.980Z,40.87
2022-07-26T13:27:56.251Z,40.83
2022-07-26T13:28:34.195Z,41.14
2022-07-26T13:29:11.116Z,40.81
2022-07-26T13:29:48.162Z,40.98
2022-07-26T13:30:26.811Z,40.81
2022-07-26T13:31:05.321Z,40.87
2022-07-26T13:31:42.415Z,40.81
2022-07-26T13:32:19.550Z,41.16
2022-07-26T13:32:57.575Z,40.81
2022-07-26T13:33:36.336Z,40.83
2022-07-26T13:34:13.906Z,41.07
2022-07-26T13:34:50.438Z,40.58
2022-07-26T13:35:28.341Z,40.96
2022-07-26T13:36:05.596Z,40.69
2022-07-26T13:36:42.797Z,40.53
2022-07-26T13:37:20.735Z,40.56
2022-07-26T13:37:57.623Z,40.74
2022-07-26T13:38:35.516Z,40.50
2022-07-26T13:39:12.886Z,40.85
2022-07-26T13:39:51.225Z,40.59
2022-07-26T13:40:31.499Z,40.29
2022-07-26T13:41:08.359Z,40.56
2022-07-26T13:41:45.610Z,40.46
2022-07-26T13:42:23.024Z,40.66
2022-07-26T13:43:00.587Z,40.85
2022-07-26T13:43:37.750Z,40.56
2022-07-26T13:44:14.977Z,40.70
2022-07-26T13:44:52.986Z,40.47
2022-07-26T13:45:30.642Z,40.65
2022-07-26T13:46:08.187Z,40.75
2022-07-26T13:46:46.240Z,40.71
2022-07-26T13:47:23.444Z,40.68
2022-07-26T13:48:01.170Z,40.71
2022-07-26T13:48:44.079Z,40.59
2022-07-26T13:49:35.592Z,40.19
2022-07-26T13:50:15.983Z,40.17
2022-07-26T13:51:01.937Z,40.58
2022-07-26T13:51:49.612Z,40.11
2022-07-26T13:52:35.230Z,40.01
2022-07-26T13:53:15.623Z,40.18
2022-07-26T13:53:55.222Z,40.17
2022-07-26T13:54:41.017Z,39.99
2022-07-26T13:55:26.264Z,40.21
2022-07-26T13:56:03.961Z,40.33
2022-07-26T13:56:40.756Z,40.29
2022-07-26T13:57:17.937Z,40.37
2022-07-26T13:57:57.218Z,40.23
2022-07-26T13:58:41.637Z,40.44
2022-07-26T13:59:26.159Z,40.08
2022-07-26T14:00:26.827Z,39.86
2022-07-26T14:01:08.183Z,39.92
2022-07-26T14:01:45.614Z,40.14
2022-07-26T14:02:35.355Z,40.13
2022-07-26T14:03:22.004Z,40.03
2022-07-26T14:04:03.081Z,40.37
2022-07-26T14:04:39.941Z,40.57
2022-07-26T14:05:16.837Z,40.46
2022-07-26T14:05:54.325Z,40.32
2022-07-26T14:06:32.362Z,40.11
2022-07-26T14:07:10.023Z,40.06
2022-07-26T14:07:52.013Z,40.15
2022-07-26T14:08:34.926Z,40.05
2022-07-26T14:09:16.284Z,40.34
2022-07-26T14:09:53.889Z,40.24
2022-07-26T14:10:30.650Z,40.68
2022-07-26T14:11:07.382Z,40.50
2022-07-26T14:11:45.649Z,40.13
2022-07-26T14:12:23.244Z,40.15
2022-07-26T14:13:01.019Z,40.03
2022-07-26T14:13:39.268Z,40.02
2022-07-26T14:14:17.514Z,39.94
2022-07-26T14:14:55.290Z,40.03
2022-07-26T14:15:32.851Z,40.09
2022-07-26T14:16:10.450Z,39.76
2022-07-26T14:16:49.694Z,40.03
2022-07-26T14:17:26.936Z,39.85
2022-07-26T14:18:04.560Z,40.32
2022-07-26T14:18:41.817Z,39.85
2022-07-26T14:19:19.364Z,40.41
2022-07-26T14:19:56.648Z,39.82
2022-07-26T14:20:34.633Z,40.16
2022-07-26T14:21:12.578Z,40.27
2022-07-26T14:21:59.326Z,39.86
2022-07-26T14:22:37.268Z,40.32
2022-07-26T14:23:16.858Z,40.17
2022-07-26T14:23:55.126Z,39.90
2022-07-26T14:24:36.686Z,40.13
2022-07-26T14:25:19.923Z,40.09
2022-07-26T14:26:01.738Z,40.34
2022-07-26T14:26:47.249Z,40.06
2022-07-26T14:27:33.767Z,39.88
2022-07-26T14:28:19.483Z,39.91
2022-07-26T14:28:59.391Z,39.74
2022-07-26T14:29:36.629Z,40.08
2022-07-26T14:30:14.062Z,40.62
2022-07-26T14:30:52.046Z,40.17
2022-07-26T14:31:29.318Z,39.91
2022-07-26T14:32:06.428Z,40.54
2022-07-26T14:32:43.562Z,40.57
2022-07-26T14:33:20.496Z,40.01
2022-07-26T14:33:57.396Z,39.94
2022-07-26T14:34:34.479Z,40.14
2022-07-26T14:35:11.719Z,40.47
2022-07-26T14:35:49.805Z,40.23
2022-07-26T14:36:27.167Z,40.14
2022-07-26T14:37:09.132Z,39.89
2022-07-26T14:38:02.808Z,40.07
2022-07-26T14:38:39.811Z,39.94
2022-07-26T14:39:17.873Z,40.47
2022-07-26T14:39:55.109Z,40.18
2022-07-26T14:40:32.583Z,40.59
2022-07-26T14:41:10.871Z,39.87
2022-07-26T14:41:48.057Z,40.12
2022-07-26T14:42:25.166Z,39.70
2022-07-26T14:43:02.579Z,39.68
2022-07-26T14:43:39.415Z,39.70
2022-07-26T14:44:16.850Z,39.96
2022-07-26T14:44:54.050Z,39.45
2022-07-26T14:45:31.135Z,40.01
2022-07-26T14:46:08.332Z,40.11
2022-07-26T14:46:46.890Z,39.68
2022-07-26T14:47:27.229Z,40.09
2022-07-26T14:48:04.252Z,39.76
2022-07-26T14:48:54.109Z,39.79
2022-07-26T14:49:31.310Z,40.06
2022-07-26T14:50:10.940Z,39.73
2022-07-26T14:51:08.736Z,39.72
2022-07-26T14:51:46.308Z,39.59
2022-07-26T14:52:25.156Z,40.04
2022-07-26T14:53:02.326Z,39.77
2022-07-26T14:53:39.987Z,40.32
2022-07-26T14:54:17.789Z,40.07
2022-07-26T14:54:55.183Z,39.83
2022-07-26T14:55:33.059Z,40.12
2022-07-26T14:56:10.954Z,40.21
2022-07-26T14:56:49.633Z,40.20
2022-07-26T14:57:26.763Z,39.83
2022-07-26T14:58:03.997Z,39.66
2022-07-26T14:58:41.134Z,40.07
2022-07-26T14:59:18.507Z,39.50
2022-07-26T14:59:56.044Z,39.59
2022-07-26T15:00:33.058Z,39.43
2022-07-26T15:01:10.393Z,39.82
2022-07-26T15:01:48.294Z,39.92
2022-07-26T15:02:25.730Z,39.65
2022-07-26T15:03:02.687Z,40.02
2022-07-26T15:03:40.086Z,39.91
2022-07-26T15:04:17.475Z,40.10
2022-07-26T15:04:54.689Z,40.11
2022-07-26T15:05:31.456Z,39.64
2022-07-26T15:06:08.529Z,39.80
2022-07-26T15:06:45.712Z,39.81
2022-07-26T15:07:23.711Z,39.88
2022-07-26T15:08:05.558Z,39.92
2022-07-26T15:08:42.412Z,40.24
2022-07-26T15:09:19.585Z,39.61
2022-07-26T15:09:56.616Z,39.79
2022-07-26T15:10:33.916Z,39.75
2022-07-26T15:11:10.560Z,40.12
2022-07-26T15:11:47.879Z,39.88
2022-07-26T15:12:25.016Z,39.94
2022-07-26T15:13:04.776Z,40.46
2022-07-26T15:13:41.707Z,40.19
2022-07-26T15:14:18.907Z,40.30